createdAt,value
2023-03-17T00:00:48.099Z,5.79
2023-03-17T00:03:19.343Z,5.85
2023-03-17T00:05:51.489Z,5.90
2023-03-17T00:08:24.075Z,5.96
2023-03-17T00:10:55.697Z,6.00
2023-03-17T00:13:27.805Z,6.04
2023-03-17T00:16:01.265Z,6.06
2023-03-17T00:18:35.348Z,6.07
2023-03-17T00:21:10.011Z,6.10
2023-03-17T00:23:49.673Z,6.10
2023-03-17T00:26:21.034Z,6.12
2023-03-17T00:28:54.316Z,6.13
2023-03-17T00:31:26.061Z,6.14
2023-03-17T00:33:58.283Z,6.16
2023-03-17T00:36:31.287Z,6.15
2023-03-17T00:39:03.256Z,6.13
2023-03-17T00:41:34.535Z,6.10
2023-03-17T00:44:05.752Z,6.13
2023-03-17T00:46:38.175Z,6.15
2023-03-17T00:51:47.284Z,6.17
2023-03-17T00:54:19.510Z,6.18
2023-03-17T00:56:51.921Z,6.18
2023-03-17T00:59:30.415Z,6.16
2023-03-17T01:02:01.758Z,6.14
2023-03-17T01:04:33.818Z,6.10
2023-03-17T01:07:05.131Z,6.07
2023-03-17T01:09:36.443Z,6.05
2023-03-17T01:12:10.377Z,6.01
2023-03-17T01:14:41.852Z,5.94
2023-03-17T01:17:15.028Z,5.88
2023-03-17T01:19:47.116Z,5.81
2023-03-17T01:22:18.820Z,5.73
2023-03-17T01:24:50.058Z,5.67
2023-03-17T01:27:21.803Z,5.61
2023-03-17T01:29:53.973Z,5.61
2023-03-17T01:32:25.673Z,5.40
2023-03-17T01:34:56.977Z,5.52
2023-03-17T01:37:28.540Z,5.49
2023-03-17T01:39:59.828Z,5.48
2023-03-17T01:42:31.775Z,5.49
2023-03-17T01:45:05.543Z,5.53
2023-03-17T01:47:36.771Z,5.53
2023-03-17T01:50:09.768Z,5.52
2023-03-17T01:52:41.553Z,5.48
2023-03-17T01:55:15.017Z,5.44
2023-03-17T01:57:50.649Z,5.41
2023-03-17T02:00:24.056Z,5.43
2023-03-17T02:02:56.098Z,5.48
2023-03-17T02:05:28.729Z,5.52
2023-03-17T02:08:00.205Z,5.57
2023-03-17T02:10:32.269Z,5.62
2023-03-17T02:13:05.695Z,5.65
2023-03-17T02:15:48.388Z,5.66
2023-03-17T02:18:20.979Z,5.69
2023-03-17T02:21:15.357Z,5.70
2023-03-17T02:23:46.620Z,5.72
2023-03-17T02:26:19.339Z,5.76
2023-03-17T02:28:50.612Z,5.80
2023-03-17T02:31:24.651Z,5.83
2023-03-17T02:33:56.185Z,5.84
2023-03-17T02:36:27.544Z,5.88
2023-03-17T02:38:58.961Z,5.90
2023-03-17T02:41:30.387Z,5.90
2023-03-17T02:44:01.638Z,5.90
2023-03-17T02:46:32.929Z,5.92
2023-03-17T02:49:04.531Z,5.92
2023-03-17T02:51:36.083Z,5.88
2023-03-17T02:54:07.654Z,5.85
2023-03-17T02:56:38.957Z,5.84
2023-03-17T02:59:10.419Z,5.85
2023-03-17T03:01:42.057Z,5.89
2023-03-17T03:04:13.324Z,5.94
2023-03-17T03:06:44.968Z,5.98
2023-03-17T03:09:17.745Z,6.01
2023-03-17T03:11:48.999Z,6.03
2023-03-17T03:14:20.219Z,6.06
2023-03-17T03:16:52.180Z,6.07
2023-03-17T03:19:24.254Z,6.05
2023-03-17T03:21:55.550Z,6.05
2023-03-17T03:24:27.784Z,6.05
2023-03-17T03:26:58.988Z,6.04
2023-03-17T03:29:30.587Z,6.03
2023-03-17T03:32:02.007Z,5.99
2023-03-17T03:34:33.359Z,5.92
2023-03-17T03:37:04.654Z,5.86
2023-03-17T03:39:35.881Z,5.53
2023-03-17T03:42:07.190Z,5.76
2023-03-17T03:44:38.625Z,5.72
2023-03-17T03:47:09.844Z,5.41
2023-03-17T03:49:41.101Z,5.63
2023-03-17T03:52:12.310Z,5.63
2023-03-17T03:54:43.561Z,5.58
2023-03-17T03:57:14.780Z,5.57
2023-03-17T03:59:46.017Z,5.53
2023-03-17T04:02:18.246Z,5.51
2023-03-17T04:04:49.750Z,5.45
2023-03-17T04:07:21.348Z,5.38
2023-03-17T04:09:52.711Z,5.33
2023-03-17T04:12:23.920Z,5.28
2023-03-17T04:14:55.237Z,5.22
2023-03-17T04:17:26.604Z,5.14
2023-03-17T04:19:58.226Z,5.07
2023-03-17T04:22:29.460Z,4.99
2023-03-17T04:25:00.787Z,4.93
2023-03-17T04:27:32.227Z,4.84
2023-03-17T04:30:04.404Z,4.80
2023-03-17T04:32:35.637Z,4.80
2023-03-17T04:35:10.881Z,4.78
2023-03-17T04:37:42.103Z,4.73
2023-03-17T04:40:13.628Z,4.70
2023-03-17T04:42:45.340Z,4.67
2023-03-17T04:45:16.719Z,4.62
2023-03-17T04:47:48.064Z,4.58
2023-03-17T04:50:19.429Z,4.55
2023-03-17T04:52:50.652Z,4.55
2023-03-17T04:55:21.977Z,4.54
2023-03-17T04:57:53.426Z,4.52
2023-03-17T05:00:25.161Z,4.48
2023-03-17T05:02:56.411Z,4.51
2023-03-17T05:05:27.630Z,4.49
2023-03-17T05:07:58.823Z,4.51
2023-03-17T05:10:30.337Z,4.50
2023-03-17T05:13:01.680Z,4.51
2023-03-17T05:15:32.896Z,4.49
2023-03-17T05:18:05.072Z,4.46
2023-03-17T05:20:36.693Z,4.39
2023-03-17T05:23:08.297Z,4.34
2023-03-17T05:25:40.457Z,4.30
2023-03-17T05:28:11.779Z,4.28
2023-03-17T05:30:43.345Z,4.25
2023-03-17T05:33:15.040Z,4.25
2023-03-17T05:35:46.472Z,4.26
2023-03-17T05:38:17.758Z,4.28
2023-03-17T05:40:49.772Z,4.32
2023-03-17T05:43:21.283Z,4.36
2023-03-17T05:45:53.022Z,4.38
2023-03-17T05:48:24.387Z,4.40
2023-03-17T05:50:55.599Z,4.39
2023-03-17T05:53:27.022Z,4.45
2023-03-17T05:55:58.325Z,4.47
2023-03-17T05:58:29.654Z,4.54
2023-03-17T06:01:00.991Z,4.60
2023-03-17T06:03:32.340Z,4.64
2023-03-17T06:06:03.676Z,4.71
2023-03-17T06:08:35.883Z,4.78
2023-03-17T06:11:07.215Z,4.84
2023-03-17T06:13:38.417Z,4.90
2023-03-17T06:16:09.763Z,4.98
2023-03-17T06:18:41.023Z,5.06
2023-03-17T06:21:12.814Z,5.15
2023-03-17T06:23:44.029Z,5.24
2023-03-17T06:26:16.004Z,5.37
2023-03-17T06:28:47.325Z,5.51
2023-03-17T06:31:18.614Z,5.66
2023-03-17T06:33:49.943Z,5.82
2023-03-17T06:36:21.656Z,5.97
2023-03-17T06:38:52.913Z,6.04
2023-03-17T06:41:24.774Z,6.07
2023-03-17T06:43:56.481Z,6.13
2023-03-17T06:46:27.983Z,6.26
2023-03-17T06:48:59.329Z,6.42
2023-03-17T06:51:32.303Z,6.61
2023-03-17T06:54:03.841Z,6.77
2023-03-17T06:56:35.343Z,6.97
2023-03-17T06:59:06.752Z,7.13
2023-03-17T07:01:39.231Z,7.30
2023-03-17T07:04:10.994Z,7.45
2023-03-17T07:06:42.909Z,7.60
2023-03-17T07:09:15.461Z,7.74
2023-03-17T07:11:46.800Z,7.92
2023-03-17T07:14:18.587Z,8.10
2023-03-17T07:16:50.157Z,8.27
2023-03-17T07:19:22.334Z,8.44
2023-03-17T07:21:55.698Z,8.60
2023-03-17T07:24:27.067Z,8.76
2023-03-17T07:26:58.514Z,8.99
2023-03-17T07:29:29.904Z,9.24
2023-03-17T07:32:01.283Z,9.53
2023-03-17T07:34:32.647Z,9.86
2023-03-17T07:37:04.276Z,10.21
2023-03-17T07:39:36.553Z,10.54
2023-03-17T07:42:08.137Z,10.68
2023-03-17T07:44:41.451Z,10.72
2023-03-17T07:47:13.216Z,10.73
2023-03-17T07:49:44.633Z,10.78
2023-03-17T07:52:16.161Z,10.91
2023-03-17T07:54:47.481Z,10.98
2023-03-17T07:57:19.276Z,11.04
2023-03-17T07:59:50.673Z,11.08
2023-03-17T08:02:22.178Z,11.19
2023-03-17T08:04:53.940Z,11.48
2023-03-17T08:07:25.684Z,11.87
2023-03-17T08:09:57.519Z,12.25
2023-03-17T08:12:29.066Z,12.49
2023-03-17T08:15:01.367Z,12.64
2023-03-17T08:17:33.170Z,12.81
2023-03-17T08:20:05.094Z,13.04
2023-03-17T08:22:36.441Z,13.22
2023-03-17T08:25:09.527Z,13.34
2023-03-17T08:27:41.895Z,13.34
2023-03-17T08:30:13.491Z,13.33
2023-03-17T08:32:44.882Z,13.40
2023-03-17T08:35:17.106Z,13.44
2023-03-17T08:37:48.484Z,13.49
2023-03-17T08:40:19.941Z,13.57
2023-03-17T08:42:51.633Z,13.67
2023-03-17T08:45:23.136Z,13.81
2023-03-17T08:47:54.602Z,13.89
2023-03-17T08:50:26.001Z,13.93
2023-03-17T08:52:57.345Z,14.00
2023-03-17T08:55:28.593Z,14.12
2023-03-17T08:57:59.969Z,14.28
2023-03-17T09:00:31.379Z,14.31
2023-03-17T09:03:03.459Z,14.34
2023-03-17T09:05:37.675Z,14.35
2023-03-17T09:08:10.356Z,14.38
2023-03-17T09:10:44.207Z,14.44
2023-03-17T09:13:17.551Z,14.54
2023-03-17T09:15:51.726Z,14.68
2023-03-17T09:18:23.806Z,14.84
2023-03-17T09:20:55.056Z,14.96
2023-03-17T09:23:26.388Z,14.97
2023-03-17T09:25:57.810Z,14.93
2023-03-17T09:28:29.220Z,14.98
2023-03-17T09:31:05.138Z,15.05
2023-03-17T09:33:36.855Z,15.04
2023-03-17T09:36:09.300Z,15.05
2023-03-17T09:38:40.626Z,15.15
2023-03-17T09:41:26.896Z,15.28
2023-03-17T09:44:11.077Z,15.42
2023-03-17T09:46:53.510Z,15.48
2023-03-17T09:49:28.458Z,15.48
2023-03-17T09:51:59.872Z,15.36
2023-03-17T09:54:33.240Z,15.23
2023-03-17T09:57:10.234Z,15.21
2023-03-17T09:59:47.256Z,15.33
2023-03-17T10:02:23.431Z,15.58
2023-03-17T10:04:54.776Z,15.78
2023-03-17T10:07:40.640Z,16.00
2023-03-17T10:10:29.666Z,16.23
2023-03-17T10:13:19.921Z,16.47
2023-03-17T10:15:57.891Z,16.80
2023-03-17T10:18:32.782Z,16.95
2023-03-17T10:21:07.646Z,17.03
2023-03-17T10:23:39.413Z,17.10
2023-03-17T10:26:21.125Z,17.15
2023-03-17T10:28:53.190Z,17.34
2023-03-17T10:31:29.250Z,17.62
2023-03-17T10:34:13.184Z,17.85
2023-03-17T10:36:46.950Z,17.90
2023-03-17T10:39:19.743Z,17.86
2023-03-17T10:41:54.070Z,17.80
2023-03-17T10:44:33.109Z,17.78
2023-03-17T10:47:04.429Z,17.73
2023-03-17T10:49:36.905Z,17.63
2023-03-17T10:52:08.208Z,17.62
2023-03-17T10:54:40.412Z,17.70
2023-03-17T10:57:12.132Z,17.82
2023-03-17T10:59:44.575Z,17.89
2023-03-17T11:02:21.078Z,17.85
2023-03-17T11:05:00.628Z,18.22
2023-03-17T11:07:40.061Z,18.34
2023-03-17T11:10:18.961Z,18.39
2023-03-17T11:12:55.402Z,18.40
2023-03-17T11:15:31.698Z,18.29
2023-03-17T11:18:05.613Z,18.21
2023-03-17T11:20:39.940Z,18.17
2023-03-17T11:23:11.175Z,18.19
2023-03-17T11:25:43.910Z,18.20
2023-03-17T11:28:20.183Z,18.25
2023-03-17T11:30:57.104Z,18.29
2023-03-17T11:33:36.148Z,18.33
2023-03-17T11:36:30.430Z,18.44
2023-03-17T11:39:16.474Z,18.53
2023-03-17T11:41:55.615Z,18.50
2023-03-17T11:44:38.845Z,18.48
2023-03-17T11:47:23.253Z,18.46
2023-03-17T11:50:15.520Z,18.45
2023-03-17T11:52:53.998Z,18.48
2023-03-17T11:55:31.131Z,18.49
2023-03-17T11:58:05.103Z,18.40
2023-03-17T12:00:39.322Z,18.37
2023-03-17T12:03:10.640Z,18.33
2023-03-17T12:05:45.422Z,18.37
2023-03-17T12:08:37.790Z,18.39
2023-03-17T12:11:11.975Z,18.34
2023-03-17T12:13:48.617Z,18.41
2023-03-17T12:16:32.166Z,18.57
2023-03-17T12:19:19.352Z,18.75
2023-03-17T12:21:53.032Z,18.74
2023-03-17T12:24:32.727Z,18.69
2023-03-17T12:27:20.224Z,18.64
2023-03-17T12:30:00.504Z,18.66
2023-03-17T12:32:42.035Z,18.77
2023-03-17T12:35:27.830Z,18.91
2023-03-17T12:38:00.360Z,19.02
2023-03-17T12:40:41.110Z,19.02
2023-03-17T12:43:27.020Z,19.12
2023-03-17T12:46:08.414Z,19.24
2023-03-17T12:48:48.514Z,19.25
2023-03-17T12:51:22.596Z,19.28
2023-03-17T12:53:53.987Z,19.33
2023-03-17T12:56:29.846Z,19.32
2023-03-17T12:59:08.984Z,19.40
2023-03-17T13:01:42.847Z,19.49
2023-03-17T13:04:17.299Z,19.56
2023-03-17T13:06:59.928Z,19.65
2023-03-17T13:09:31.835Z,19.69
2023-03-17T13:12:04.678Z,19.70
2023-03-17T13:14:40.938Z,19.58
2023-03-17T13:17:19.352Z,19.58
2023-03-17T13:20:08.623Z,19.55
2023-03-17T13:22:46.294Z,19.53
2023-03-17T13:25:30.615Z,19.52
2023-03-17T13:28:16.659Z,19.52
2023-03-17T13:30:47.888Z,19.54
2023-03-17T13:33:25.713Z,19.49
2023-03-17T13:36:05.144Z,19.35
2023-03-17T13:39:15.031Z,19.24
2023-03-17T13:42:05.564Z,19.11
2023-03-17T13:44:52.483Z,19.06
2023-03-17T13:47:24.217Z,19.00
2023-03-17T13:50:00.740Z,19.06
2023-03-17T13:53:08.582Z,19.24
2023-03-17T13:55:41.428Z,19.47
2023-03-17T13:58:12.814Z,19.61
2023-03-17T14:00:48.881Z,19.63
2023-03-17T14:03:27.366Z,19.36
2023-03-17T14:06:02.428Z,19.53
2023-03-17T14:08:34.851Z,19.55
2023-03-17T14:11:19.118Z,19.62
2023-03-17T14:13:56.576Z,19.71
2023-03-17T14:16:29.693Z,19.76
2023-03-17T14:19:10.386Z,19.69
2023-03-17T14:21:41.876Z,19.54
2023-03-17T14:24:21.258Z,19.38
2023-03-17T14:26:52.838Z,19.30
2023-03-17T14:29:27.103Z,19.23
2023-03-17T14:32:04.354Z,19.21
2023-03-17T14:34:41.921Z,19.18
2023-03-17T14:37:13.138Z,19.16
2023-03-17T14:39:46.208Z,19.19
2023-03-17T14:42:18.335Z,19.24
2023-03-17T14:44:59.069Z,19.30
2023-03-17T14:47:33.613Z,19.29
2023-03-17T14:50:07.054Z,19.35
2023-03-17T14:52:41.053Z,19.44
2023-03-17T14:55:14.409Z,19.43
2023-03-17T14:57:53.086Z,19.38
2023-03-17T15:00:34.149Z,19.31
2023-03-17T15:03:17.384Z,19.20
2023-03-17T15:05:49.203Z,19.11
2023-03-17T15:08:36.502Z,19.04
2023-03-17T15:11:08.706Z,18.99
2023-03-17T15:13:40.004Z,18.94
2023-03-17T15:16:16.994Z,18.87
2023-03-17T15:18:57.923Z,18.79
2023-03-17T15:21:32.886Z,18.68
2023-03-17T15:24:24.481Z,18.62
2023-03-17T15:27:00.319Z,18.56
2023-03-17T15:29:31.864Z,18.49
2023-03-17T15:32:09.921Z,18.44
2023-03-17T15:34:41.337Z,18.34
2023-03-17T15:37:16.908Z,18.25
2023-03-17T15:39:49.272Z,18.13
2023-03-17T15:42:21.619Z,18.01
2023-03-17T15:44:53.210Z,17.82
2023-03-17T15:47:26.525Z,17.63
2023-03-17T15:49:58.927Z,17.50
2023-03-17T15:52:30.220Z,17.43
2023-03-17T15:55:01.462Z,17.41
2023-03-17T15:57:32.659Z,17.41
2023-03-17T16:00:04.297Z,17.40
2023-03-17T16:02:36.242Z,17.41
2023-03-17T16:05:15.285Z,17.41
2023-03-17T16:07:46.900Z,17.41
2023-03-17T16:10:23.083Z,17.35
2023-03-17T16:12:54.393Z,17.34
2023-03-17T16:15:27.659Z,17.33
2023-03-17T16:18:00.334Z,17.24
2023-03-17T16:20:36.096Z,17.15
2023-03-17T16:23:11.445Z,17.03
2023-03-17T16:25:42.962Z,16.85
2023-03-17T16:28:19.133Z,16.70
2023-03-17T16:30:51.208Z,16.52
2023-03-17T16:33:32.205Z,16.38
2023-03-17T16:36:03.740Z,16.26
2023-03-17T16:38:34.986Z,16.16
2023-03-17T16:41:07.787Z,16.08
2023-03-17T16:43:42.196Z,16.01
2023-03-17T16:46:13.566Z,15.94
2023-03-17T16:48:44.836Z,15.88
2023-03-17T16:51:16.763Z,15.80
2023-03-17T16:53:48.203Z,15.71
2023-03-17T16:56:21.285Z,15.63
2023-03-17T16:58:52.593Z,15.51
2023-03-17T17:01:25.684Z,15.43
2023-03-17T17:03:56.995Z,15.35
2023-03-17T17:06:28.368Z,15.28
2023-03-17T17:08:59.591Z,15.21
2023-03-17T17:11:31.018Z,15.12
2023-03-17T17:14:02.230Z,14.98
2023-03-17T17:16:35.367Z,14.83
2023-03-17T17:19:12.739Z,14.71
2023-03-17T17:21:44.264Z,14.64
2023-03-17T17:24:15.495Z,14.57
2023-03-17T17:26:47.026Z,14.48
2023-03-17T17:29:18.780Z,14.37
2023-03-17T17:31:50.161Z,14.26
2023-03-17T17:34:21.572Z,14.13
2023-03-17T17:36:52.899Z,13.99
2023-03-17T17:39:24.132Z,13.84
2023-03-17T17:41:55.639Z,13.69
2023-03-17T17:44:27.097Z,13.56
2023-03-17T17:46:58.598Z,13.44
2023-03-17T17:49:29.966Z,13.33
2023-03-17T17:52:01.485Z,13.25
2023-03-17T17:54:33.509Z,13.16
2023-03-17T17:57:04.752Z,13.08
2023-03-17T17:59:35.980Z,13.01
2023-03-17T18:02:38.198Z,12.78
2023-03-17T18:05:10.444Z,12.73
2023-03-17T18:07:41.833Z,12.75
2023-03-17T18:10:20.622Z,12.68
2023-03-17T18:12:52.361Z,12.40
2023-03-17T18:15:25.263Z,12.16
2023-03-17T18:17:57.056Z,12.49
2023-03-17T18:20:28.754Z,12.41
2023-03-17T18:23:00.532Z,11.98
2023-03-17T18:25:31.911Z,12.34
2023-03-17T18:28:03.545Z,11.90
2023-03-17T18:30:35.647Z,12.19
2023-03-17T18:33:15.398Z,12.33
2023-03-17T18:35:48.679Z,12.21
2023-03-17T18:38:20.188Z,12.12
2023-03-17T18:40:52.025Z,12.14
2023-03-17T18:43:23.329Z,12.13
2023-03-17T18:45:54.732Z,12.04
2023-03-17T18:48:26.098Z,12.06
2023-03-17T18:50:57.441Z,11.98
2023-03-17T18:53:30.755Z,11.93
2023-03-17T18:56:02.455Z,12.02
2023-03-17T18:58:33.770Z,11.99
2023-03-17T19:01:05.356Z,11.56
2023-03-17T19:03:36.894Z,11.82
2023-03-17T19:06:17.437Z,11.72
2023-03-17T19:08:49.631Z,11.34
2023-03-17T19:11:21.610Z,11.69
2023-03-17T19:13:53.154Z,11.49
2023-03-17T19:16:28.885Z,11.57
2023-03-17T19:19:01.095Z,11.53
2023-03-17T19:21:33.310Z,11.54
2023-03-17T19:24:05.842Z,11.37
2023-03-17T19:26:37.431Z,11.55
2023-03-17T19:29:09.960Z,11.10
2023-03-17T19:31:42.425Z,11.47
2023-03-17T19:34:15.265Z,11.43
2023-03-17T19:36:46.721Z,11.22
2023-03-17T19:39:18.597Z,11.43
2023-03-17T19:41:53.170Z,11.20
2023-03-17T19:44:24.799Z,11.36
2023-03-17T19:46:56.441Z,11.44
2023-03-17T19:49:27.830Z,11.48
2023-03-17T19:51:59.263Z,11.62
2023-03-17T19:54:30.647Z,11.25
2023-03-17T19:57:01.999Z,11.66
2023-03-17T19:59:33.334Z,11.67
2023-03-17T20:02:04.752Z,11.64
2023-03-17T20:04:37.249Z,11.70
2023-03-17T20:07:11.286Z,11.66
2023-03-17T20:09:44.513Z,11.66
2023-03-17T20:12:15.999Z,11.54
2023-03-17T20:14:47.442Z,11.38
2023-03-17T20:17:19.627Z,11.31
2023-03-17T20:19:50.974Z,11.35
2023-03-17T20:22:22.373Z,11.59
2023-03-17T20:24:53.732Z,11.51
2023-03-17T20:27:25.385Z,11.56
2023-03-17T20:29:57.319Z,11.63
2023-03-17T20:32:29.758Z,11.50
2023-03-17T20:35:01.135Z,11.63
2023-03-17T20:37:32.500Z,11.59
2023-03-17T20:40:08.030Z,11.61
2023-03-17T20:42:39.670Z,11.65
2023-03-17T20:45:11.085Z,11.74
2023-03-17T20:47:43.560Z,11.78
2023-03-17T20:50:16.336Z,11.73
2023-03-17T20:52:49.540Z,11.77
2023-03-17T20:55:21.941Z,11.56
2023-03-17T20:57:53.274Z,11.86
2023-03-17T21:00:25.035Z,12.00
2023-03-17T21:02:56.377Z,11.97
2023-03-17T21:05:28.306Z,11.47
2023-03-17T21:07:59.656Z,11.86
2023-03-17T21:10:31.545Z,12.01
2023-03-17T21:13:03.076Z,11.96
2023-03-17T21:15:34.419Z,11.90
2023-03-17T21:18:05.758Z,11.85
2023-03-17T21:20:37.506Z,12.01
2023-03-17T21:23:09.164Z,11.53
2023-03-17T21:25:40.892Z,11.79
2023-03-17T21:28:13.559Z,11.86
2023-03-17T21:30:46.071Z,11.81
2023-03-17T21:33:17.362Z,11.56
2023-03-17T21:35:48.816Z,11.80
2023-03-17T21:38:20.243Z,11.94
2023-03-17T21:40:51.684Z,11.64
2023-03-17T21:43:24.249Z,11.50
2023-03-17T21:45:56.095Z,11.50
2023-03-17T21:48:27.435Z,11.50
2023-03-17T21:50:58.741Z,11.50
2023-03-17T21:53:30.923Z,11.96
2023-03-17T21:56:02.341Z,12.02
2023-03-17T21:58:34.552Z,11.99
2023-03-17T22:01:06.465Z,12.05
2023-03-17T22:03:39.518Z,12.07
2023-03-17T22:06:13.114Z,11.74
2023-03-17T22:08:45.716Z,12.11
2023-03-17T22:11:18.751Z,11.81
2023-03-17T22:13:50.445Z,12.18
2023-03-17T22:16:21.846Z,12.20
2023-03-17T22:18:53.532Z,11.99
2023-03-17T22:21:25.125Z,12.08
2023-03-17T22:23:56.531Z,12.13
2023-03-17T22:26:28.505Z,11.87
2023-03-17T22:29:00.301Z,11.60
2023-03-17T22:31:31.721Z,11.96
2023-03-17T22:34:04.217Z,11.46
2023-03-17T22:36:36.913Z,11.54
2023-03-17T22:39:10.420Z,11.86
2023-03-17T22:41:41.970Z,11.79
2023-03-17T22:44:13.346Z,11.64
2023-03-17T22:46:44.921Z,11.44
2023-03-17T22:49:16.509Z,11.64
2023-03-17T22:51:49.938Z,11.54
2023-03-17T22:54:21.898Z,11.10
2023-03-17T22:56:53.309Z,11.03
2023-03-17T22:59:24.783Z,11.18
2023-03-17T23:01:56.668Z,11.25
2023-03-17T23:04:28.025Z,10.93
2023-03-17T23:06:59.362Z,11.26
2023-03-17T23:09:31.138Z,10.98
2023-03-17T23:12:02.540Z,11.09
2023-03-17T23:14:33.884Z,11.25
2023-03-17T23:17:06.121Z,11.27
2023-03-17T23:19:37.571Z,11.31
2023-03-17T23:22:08.956Z,11.27
2023-03-17T23:24:40.306Z,11.29
2023-03-17T23:27:11.981Z,11.13
2023-03-17T23:29:43.412Z,11.05
2023-03-17T23:32:15.414Z,11.13
2023-03-17T23:34:46.916Z,10.95
2023-03-17T23:37:18.292Z,10.91
2023-03-17T23:39:49.618Z,10.81
2023-03-17T23:42:21.352Z,10.95
2023-03-17T23:44:52.689Z,10.81
2023-03-17T23:47:24.105Z,10.82
2023-03-17T23:49:55.516Z,10.85
2023-03-17T23:52:26.990Z,10.44
2023-03-17T23:54:58.810Z,10.69
2023-03-17T23:57:30.406Z,10.94
